Terminal Aerodrome Forecast
Issued by NWS Grand Junction, CO

Home | Current Version | Previous Version | Text Only | Print | Product List | Glossary On
Versions: 1 2 3 4 5 6 7 8 9 10 11 12 13 14 15 16 17
000
FTUS45 KGJT 311435 AAA
TAFGJT
TAF AMD
KGJT 311435Z 3115/0112 14007KT P6SM FEW120
     FM311900 20005KT P6SM FEW150
     FM312100 27007KT P6SM FEW250
     FM010200 15006KT P6SM SCT250
     FM010900 12010KT P6SM BKN120=

USA.gov is the U.S. government's official web portal to all federal, state and local government web resources and services.